sensor_id;sensor_type;location;lat;lon;timestamp;P1;durP1;ratioP1;P2;durP2;ratioP2
14892;SDS011;7538;53.626;9.906;2023-11-19T00:00:26;31.83;;;16.80;;
14892;SDS011;7538;53.626;9.906;2023-11-19T00:02:53;35.83;;;17.17;;
14892;SDS011;7538;53.626;9.906;2023-11-19T00:05:20;27.63;;;15.50;;
14892;SDS011;7538;53.626;9.906;2023-11-19T00:07:47;34.90;;;16.80;;
14892;SDS011;7538;53.626;9.906;2023-11-19T00:10:14;31.30;;;15.43;;
14892;SDS011;7538;53.626;9.906;2023-11-19T00:12:44;41.17;;;17.73;;
14892;SDS011;7538;53.626;9.906;2023-11-19T00:15:12;36.07;;;17.03;;
14892;SDS011;7538;53.626;9.906;2023-11-19T00:17:41;29.20;;;16.40;;
14892;SDS011;7538;53.626;9.906;2023-11-19T00:20:10;30.37;;;16.47;;
14892;SDS011;7538;53.626;9.906;2023-11-19T00:22:37;30.53;;;15.90;;
14892;SDS011;7538;53.626;9.906;2023-11-19T00:25:04;30.77;;;15.53;;
14892;SDS011;7538;53.626;9.906;2023-11-19T00:27:32;40.27;;;16.87;;
14892;SDS011;7538;53.626;9.906;2023-11-19T00:29:59;26.07;;;14.43;;
14892;SDS011;7538;53.626;9.906;2023-11-19T00:32:26;27.90;;;14.67;;
14892;SDS011;7538;53.626;9.906;2023-11-19T00:34:54;29.23;;;13.83;;
14892;SDS011;7538;53.626;9.906;2023-11-19T00:37:21;21.50;;;11.80;;
14892;SDS011;7538;53.626;9.906;2023-11-19T00:39:47;23.23;;;12.07;;
14892;SDS011;7538;53.626;9.906;2023-11-19T00:42:14;29.33;;;13.30;;
14892;SDS011;7538;53.626;9.906;2023-11-19T00:44:44;23.27;;;12.00;;
14892;SDS011;7538;53.626;9.906;2023-11-19T00:47:11;23.50;;;12.87;;
14892;SDS011;7538;53.626;9.906;2023-11-19T00:49:38;24.30;;;12.10;;
14892;SDS011;7538;53.626;9.906;2023-11-19T00:52:06;22.97;;;11.67;;
14892;SDS011;7538;53.626;9.906;2023-11-19T00:54:33;19.20;;;11.23;;
14892;SDS011;7538;53.626;9.906;2023-11-19T00:57:00;22.63;;;11.23;;
14892;SDS011;7538;53.626;9.906;2023-11-19T00:59:27;26.20;;;11.47;;
14892;SDS011;7538;53.626;9.906;2023-11-19T01:01:54;25.23;;;13.30;;
14892;SDS011;7538;53.626;9.906;2023-11-19T01:04:21;21.00;;;11.50;;
14892;SDS011;7538;53.626;9.906;2023-11-19T01:06:49;19.20;;;11.27;;
14892;SDS011;7538;53.626;9.906;2023-11-19T01:09:17;16.93;;;10.73;;
14892;SDS011;7538;53.626;9.906;2023-11-19T01:11:44;18.20;;;10.53;;
14892;SDS011;7538;53.626;9.906;2023-11-19T01:14:11;15.70;;;9.40;;
14892;SDS011;7538;53.626;9.906;2023-11-19T01:16:37;18.87;;;10.93;;
14892;SDS011;7538;53.626;9.906;2023-11-19T01:19:04;18.37;;;9.93;;
14892;SDS011;7538;53.626;9.906;2023-11-19T01:21:31;20.87;;;10.03;;
14892;SDS011;7538;53.626;9.906;2023-11-19T01:23:58;13.77;;;8.87;;
14892;SDS011;7538;53.626;9.906;2023-11-19T01:26:27;14.57;;;9.47;;
14892;SDS011;7538;53.626;9.906;2023-11-19T01:28:54;12.23;;;8.13;;
14892;SDS011;7538;53.626;9.906;2023-11-19T01:31:21;10.87;;;7.70;;
14892;SDS011;7538;53.626;9.906;2023-11-19T01:33:47;16.97;;;8.90;;
14892;SDS011;7538;53.626;9.906;2023-11-19T01:36:14;12.85;;;8.00;;
14892;SDS011;7538;53.626;9.906;2023-11-19T01:38:41;13.80;;;8.20;;
14892;SDS011;7538;53.626;9.906;2023-11-19T01:41:11;12.60;;;7.97;;
14892;SDS011;7538;53.626;9.906;2023-11-19T01:43:39;20.83;;;9.70;;
14892;SDS011;7538;53.626;9.906;2023-11-19T01:46:07;12.17;;;7.93;;
14892;SDS011;7538;53.626;9.906;2023-11-19T01:48:36;15.90;;;8.57;;
14892;SDS011;7538;53.626;9.906;2023-11-19T01:51:08;14.90;;;8.50;;
14892;SDS011;7538;53.626;9.906;2023-11-19T01:53:36;19.97;;;8.97;;
14892;SDS011;7538;53.626;9.906;2023-11-19T01:56:04;18.33;;;8.53;;
14892;SDS011;7538;53.626;9.906;2023-11-19T01:58:34;17.27;;;8.83;;
14892;SDS011;7538;53.626;9.906;2023-11-19T02:01:02;12.00;;;6.83;;
14892;SDS011;7538;53.626;9.906;2023-11-19T02:03:30;11.37;;;6.17;;
14892;SDS011;7538;53.626;9.906;2023-11-19T02:05:57;10.00;;;5.60;;
14892;SDS011;7538;53.626;9.906;2023-11-19T02:08:25;10.70;;;5.93;;
14892;SDS011;7538;53.626;9.906;2023-11-19T02:10:51;9.17;;;5.17;;
14892;SDS011;7538;53.626;9.906;2023-11-19T02:13:20;9.33;;;5.03;;
14892;SDS011;7538;53.626;9.906;2023-11-19T02:15:47;10.03;;;5.40;;
14892;SDS011;7538;53.626;9.906;2023-11-19T02:18:18;8.53;;;5.07;;
14892;SDS011;7538;53.626;9.906;2023-11-19T02:20:47;11.87;;;5.80;;
14892;SDS011;7538;53.626;9.906;2023-11-19T02:23:14;10.17;;;5.00;;
14892;SDS011;7538;53.626;9.906;2023-11-19T02:25:41;6.50;;;4.60;;
14892;SDS011;7538;53.626;9.906;2023-11-19T02:28:13;7.07;;;4.13;;
14892;SDS011;7538;53.626;9.906;2023-11-19T02:30:41;5.40;;;3.97;;
14892;SDS011;7538;53.626;9.906;2023-11-19T02:33:08;7.17;;;4.50;;
14892;SDS011;7538;53.626;9.906;2023-11-19T02:35:35;6.27;;;4.53;;
14892;SDS011;7538;53.626;9.906;2023-11-19T02:38:02;7.53;;;4.37;;
14892;SDS011;7538;53.626;9.906;2023-11-19T02:40:31;6.50;;;4.30;;
14892;SDS011;7538;53.626;9.906;2023-11-19T02:42:58;6.73;;;4.30;;
14892;SDS011;7538;53.626;9.906;2023-11-19T02:45:26;12.47;;;5.53;;
14892;SDS011;7538;53.626;9.906;2023-11-19T02:47:56;6.20;;;4.10;;
14892;SDS011;7538;53.626;9.906;2023-11-19T02:50:23;8.17;;;4.87;;
14892;SDS011;7538;53.626;9.906;2023-11-19T02:52:51;7.40;;;5.03;;
14892;SDS011;7538;53.626;9.906;2023-11-19T02:55:21;7.63;;;4.93;;
14892;SDS011;7538;53.626;9.906;2023-11-19T02:57:49;10.47;;;5.80;;
14892;SDS011;7538;53.626;9.906;2023-11-19T03:00:18;8.10;;;5.13;;
14892;SDS011;7538;53.626;9.906;2023-11-19T03:02:50;7.80;;;5.47;;
14892;SDS011;7538;53.626;9.906;2023-11-19T03:05:24;6.97;;;4.90;;
14892;SDS011;7538;53.626;9.906;2023-11-19T03:07:51;7.40;;;5.97;;
14892;SDS011;7538;53.626;9.906;2023-11-19T03:10:18;7.13;;;5.77;;
14892;SDS011;7538;53.626;9.906;2023-11-19T03:12:45;12.10;;;7.00;;
14892;SDS011;7538;53.626;9.906;2023-11-19T03:15:12;15.90;;;7.80;;
14892;SDS011;7538;53.626;9.906;2023-11-19T03:17:39;12.80;;;7.30;;
14892;SDS011;7538;53.626;9.906;2023-11-19T03:20:09;10.27;;;7.20;;
14892;SDS011;7538;53.626;9.906;2023-11-19T03:22:40;8.07;;;6.07;;
14892;SDS011;7538;53.626;9.906;2023-11-19T03:25:07;11.63;;;7.67;;
14892;SDS011;7538;53.626;9.906;2023-11-19T03:27:34;12.40;;;7.33;;
14892;SDS011;7538;53.626;9.906;2023-11-19T03:30:02;14.77;;;7.80;;
14892;SDS011;7538;53.626;9.906;2023-11-19T03:32:30;10.10;;;6.90;;
14892;SDS011;7538;53.626;9.906;2023-11-19T03:34:58;15.13;;;8.75;;
14892;SDS011;7538;53.626;9.906;2023-11-19T03:37:27;14.27;;;8.60;;
14892;SDS011;7538;53.626;9.906;2023-11-19T03:39:54;19.35;;;9.95;;
14892;SDS011;7538;53.626;9.906;2023-11-19T03:42:24;19.13;;;9.48;;
14892;SDS011;7538;53.626;9.906;2023-11-19T03:44:51;16.10;;;8.90;;
14892;SDS011;7538;53.626;9.906;2023-11-19T03:47:18;13.70;;;8.73;;
14892;SDS011;7538;53.626;9.906;2023-11-19T03:49:46;12.10;;;9.17;;
14892;SDS011;7538;53.626;9.906;2023-11-19T03:52:14;17.47;;;9.40;;
14892;SDS011;7538;53.626;9.906;2023-11-19T03:54:42;16.27;;;10.47;;
14892;SDS011;7538;53.626;9.906;2023-11-19T03:57:09;14.90;;;9.10;;
14892;SDS011;7538;53.626;9.906;2023-11-19T03:59:37;18.17;;;10.23;;
14892;SDS011;7538;53.626;9.906;2023-11-19T04:02:04;19.83;;;11.03;;
14892;SDS011;7538;53.626;9.906;2023-11-19T04:04:31;25.65;;;13.20;;
14892;SDS011;7538;53.626;9.906;2023-11-19T04:06:59;24.42;;;12.23;;
14892;SDS011;7538;53.626;9.906;2023-11-19T04:09:27;22.33;;;11.23;;
14892;SDS011;7538;53.626;9.906;2023-11-19T04:11:56;22.87;;;11.47;;
14892;SDS011;7538;53.626;9.906;2023-11-19T04:14:22;20.37;;;10.93;;
14892;SDS011;7538;53.626;9.906;2023-11-19T04:16:49;19.77;;;11.88;;
14892;SDS011;7538;53.626;9.906;2023-11-19T04:19:17;22.77;;;12.23;;
14892;SDS011;7538;53.626;9.906;2023-11-19T04:21:43;25.93;;;12.27;;
14892;SDS011;7538;53.626;9.906;2023-11-19T04:24:10;15.43;;;9.70;;
14892;SDS011;7538;53.626;9.906;2023-11-19T04:26:40;26.50;;;11.65;;
14892;SDS011;7538;53.626;9.906;2023-11-19T04:29:09;21.67;;;13.10;;
14892;SDS011;7538;53.626;9.906;2023-11-19T04:31:37;26.30;;;13.95;;
14892;SDS011;7538;53.626;9.906;2023-11-19T04:34:04;27.83;;;13.60;;
14892;SDS011;7538;53.626;9.906;2023-11-19T04:36:31;18.67;;;11.40;;
14892;SDS011;7538;53.626;9.906;2023-11-19T04:38:58;17.67;;;10.98;;
14892;SDS011;7538;53.626;9.906;2023-11-19T04:41:25;21.38;;;12.60;;
14892;SDS011;7538;53.626;9.906;2023-11-19T04:43:52;27.77;;;13.98;;
14892;SDS011;7538;53.626;9.906;2023-11-19T04:46:20;54.72;;;18.92;;
14892;SDS011;7538;53.626;9.906;2023-11-19T04:48:48;15.13;;;10.73;;
14892;SDS011;7538;53.626;9.906;2023-11-19T04:51:15;20.88;;;11.63;;
14892;SDS011;7538;53.626;9.906;2023-11-19T04:53:42;27.60;;;13.98;;
14892;SDS011;7538;53.626;9.906;2023-11-19T04:56:10;33.47;;;15.38;;
14892;SDS011;7538;53.626;9.906;2023-11-19T04:58:38;122.32;;;27.35;;
14892;SDS011;7538;53.626;9.906;2023-11-19T05:01:05;112.57;;;24.88;;
14892;SDS011;7538;53.626;9.906;2023-11-19T05:03:33;80.57;;;20.88;;
14892;SDS011;7538;53.626;9.906;2023-11-19T05:06:01;53.63;;;20.55;;
14892;SDS011;7538;53.626;9.906;2023-11-19T05:08:28;41.35;;;18.10;;
14892;SDS011;7538;53.626;9.906;2023-11-19T05:10:55;130.82;;;30.30;;
14892;SDS011;7538;53.626;9.906;2023-11-19T05:13:22;70.63;;;23.25;;
14892;SDS011;7538;53.626;9.906;2023-11-19T05:15:49;90.50;;;26.45;;
14892;SDS011;7538;53.626;9.906;2023-11-19T05:18:16;125.78;;;28.33;;
14892;SDS011;7538;53.626;9.906;2023-11-19T05:20:44;99.75;;;28.13;;
14892;SDS011;7538;53.626;9.906;2023-11-19T05:23:11;89.88;;;28.25;;
14892;SDS011;7538;53.626;9.906;2023-11-19T05:25:38;149.82;;;35.53;;
14892;SDS011;7538;53.626;9.906;2023-11-19T05:28:05;77.63;;;26.27;;
14892;SDS011;7538;53.626;9.906;2023-11-19T05:30:32;122.97;;;33.17;;
14892;SDS011;7538;53.626;9.906;2023-11-19T05:32:58;140.57;;;35.40;;
14892;SDS011;7538;53.626;9.906;2023-11-19T05:35:25;95.30;;;30.30;;
14892;SDS011;7538;53.626;9.906;2023-11-19T05:37:54;89.45;;;29.00;;
14892;SDS011;7538;53.626;9.906;2023-11-19T05:40:21;193.77;;;41.63;;
14892;SDS011;7538;53.626;9.906;2023-11-19T05:42:48;106.05;;;29.88;;
14892;SDS011;7538;53.626;9.906;2023-11-19T05:45:15;84.35;;;30.25;;
14892;SDS011;7538;53.626;9.906;2023-11-19T05:47:41;107.75;;;32.45;;
14892;SDS011;7538;53.626;9.906;2023-11-19T05:50:09;136.18;;;36.78;;
14892;SDS011;7538;53.626;9.906;2023-11-19T05:52:36;84.55;;;31.88;;
14892;SDS011;7538;53.626;9.906;2023-11-19T05:55:05;74.47;;;29.98;;
14892;SDS011;7538;53.626;9.906;2023-11-19T05:57:34;101.43;;;32.00;;
14892;SDS011;7538;53.626;9.906;2023-11-19T06:00:01;88.60;;;30.38;;
14892;SDS011;7538;53.626;9.906;2023-11-19T06:02:32;99.40;;;32.90;;
14892;SDS011;7538;53.626;9.906;2023-11-19T06:04:59;69.55;;;28.33;;
14892;SDS011;7538;53.626;9.906;2023-11-19T06:07:26;148.90;;;37.08;;
14892;SDS011;7538;53.626;9.906;2023-11-19T06:09:52;112.10;;;31.55;;
14892;SDS011;7538;53.626;9.906;2023-11-19T06:12:20;121.18;;;36.92;;
14892;SDS011;7538;53.626;9.906;2023-11-19T06:14:47;126.97;;;34.70;;
14892;SDS011;7538;53.626;9.906;2023-11-19T06:17:14;91.75;;;31.40;;
14892;SDS011;7538;53.626;9.906;2023-11-19T06:19:41;105.43;;;31.92;;
14892;SDS011;7538;53.626;9.906;2023-11-19T06:22:08;100.00;;;30.38;;
14892;SDS011;7538;53.626;9.906;2023-11-19T06:24:35;84.00;;;26.92;;
14892;SDS011;7538;53.626;9.906;2023-11-19T06:27:01;129.75;;;34.05;;
14892;SDS011;7538;53.626;9.906;2023-11-19T06:29:30;61.30;;;22.38;;
14892;SDS011;7538;53.626;9.906;2023-11-19T06:31:57;105.22;;;29.25;;
14892;SDS011;7538;53.626;9.906;2023-11-19T06:34:24;112.05;;;28.88;;
14892;SDS011;7538;53.626;9.906;2023-11-19T06:36:51;57.75;;;22.08;;
14892;SDS011;7538;53.626;9.906;2023-11-19T06:39:21;88.18;;;24.77;;
14892;SDS011;7538;53.626;9.906;2023-11-19T06:41:48;42.92;;;18.13;;
14892;SDS011;7538;53.626;9.906;2023-11-19T06:44:15;90.18;;;26.20;;
14892;SDS011;7538;53.626;9.906;2023-11-19T06:46:44;55.00;;;19.63;;
14892;SDS011;7538;53.626;9.906;2023-11-19T06:49:11;54.88;;;18.30;;
14892;SDS011;7538;53.626;9.906;2023-11-19T06:51:41;33.60;;;15.65;;
14892;SDS011;7538;53.626;9.906;2023-11-19T06:54:08;59.90;;;19.27;;
14892;SDS011;7538;53.626;9.906;2023-11-19T06:56:34;61.85;;;17.27;;
14892;SDS011;7538;53.626;9.906;2023-11-19T06:59:02;48.95;;;15.48;;
14892;SDS011;7538;53.626;9.906;2023-11-19T07:01:30;51.33;;;16.92;;
14892;SDS011;7538;53.626;9.906;2023-11-19T07:04:03;56.50;;;17.67;;
14892;SDS011;7538;53.626;9.906;2023-11-19T07:06:34;73.03;;;20.52;;
14892;SDS011;7538;53.626;9.906;2023-11-19T07:09:01;39.28;;;15.48;;
14892;SDS011;7538;53.626;9.906;2023-11-19T07:11:34;60.35;;;18.48;;
14892;SDS011;7538;53.626;9.906;2023-11-19T07:14:01;100.70;;;22.60;;
14892;SDS011;7538;53.626;9.906;2023-11-19T07:16:29;37.50;;;13.27;;
14892;SDS011;7538;53.626;9.906;2023-11-19T07:18:55;38.00;;;12.98;;
14892;SDS011;7538;53.626;9.906;2023-11-19T07:21:25;52.30;;;14.68;;
14892;SDS011;7538;53.626;9.906;2023-11-19T07:23:53;37.33;;;12.07;;
14892;SDS011;7538;53.626;9.906;2023-11-19T07:26:20;41.78;;;12.63;;
14892;SDS011;7538;53.626;9.906;2023-11-19T07:28:47;53.17;;;13.82;;
14892;SDS011;7538;53.626;9.906;2023-11-19T07:31:14;54.00;;;14.50;;
14892;SDS011;7538;53.626;9.906;2023-11-19T07:33:41;40.40;;;10.68;;
14892;SDS011;7538;53.626;9.906;2023-11-19T07:36:09;46.13;;;10.70;;
14892;SDS011;7538;53.626;9.906;2023-11-19T07:38:37;29.77;;;9.80;;
14892;SDS011;7538;53.626;9.906;2023-11-19T07:41:05;39.10;;;9.85;;
14892;SDS011;7538;53.626;9.906;2023-11-19T07:43:35;45.35;;;9.25;;
14892;SDS011;7538;53.626;9.906;2023-11-19T07:46:02;74.28;;;13.52;;
14892;SDS011;7538;53.626;9.906;2023-11-19T07:48:29;50.58;;;11.77;;
14892;SDS011;7538;53.626;9.906;2023-11-19T07:50:55;44.90;;;10.38;;
14892;SDS011;7538;53.626;9.906;2023-11-19T07:53:22;56.28;;;11.27;;
14892;SDS011;7538;53.626;9.906;2023-11-19T07:55:51;44.50;;;9.77;;
14892;SDS011;7538;53.626;9.906;2023-11-19T07:58:18;38.70;;;9.57;;
14892;SDS011;7538;53.626;9.906;2023-11-19T08:00:45;53.97;;;10.32;;
14892;SDS011;7538;53.626;9.906;2023-11-19T08:03:12;49.72;;;9.25;;
14892;SDS011;7538;53.626;9.906;2023-11-19T08:05:39;53.30;;;11.15;;
14892;SDS011;7538;53.626;9.906;2023-11-19T08:08:06;34.10;;;7.90;;
14892;SDS011;7538;53.626;9.906;2023-11-19T08:10:33;59.42;;;10.07;;
14892;SDS011;7538;53.626;9.906;2023-11-19T08:13:04;45.40;;;9.35;;
14892;SDS011;7538;53.626;9.906;2023-11-19T08:15:34;64.75;;;11.68;;
14892;SDS011;7538;53.626;9.906;2023-11-19T08:18:01;54.45;;;10.27;;
14892;SDS011;7538;53.626;9.906;2023-11-19T08:20:28;56.63;;;11.98;;
14892;SDS011;7538;53.626;9.906;2023-11-19T08:22:55;72.60;;;12.48;;
14892;SDS011;7538;53.626;9.906;2023-11-19T08:25:22;47.58;;;9.68;;
14892;SDS011;7538;53.626;9.906;2023-11-19T08:27:48;59.72;;;10.05;;
14892;SDS011;7538;53.626;9.906;2023-11-19T08:30:17;39.22;;;9.07;;
14892;SDS011;7538;53.626;9.906;2023-11-19T08:32:44;57.10;;;10.60;;
14892;SDS011;7538;53.626;9.906;2023-11-19T08:35:10;51.47;;;9.93;;
14892;SDS011;7538;53.626;9.906;2023-11-19T08:37:37;46.80;;;9.75;;
14892;SDS011;7538;53.626;9.906;2023-11-19T08:40:04;73.82;;;11.85;;
14892;SDS011;7538;53.626;9.906;2023-11-19T08:42:32;39.83;;;9.27;;
14892;SDS011;7538;53.626;9.906;2023-11-19T08:44:59;45.95;;;8.45;;
14892;SDS011;7538;53.626;9.906;2023-11-19T08:47:27;64.45;;;11.93;;
14892;SDS011;7538;53.626;9.906;2023-11-19T08:49:54;46.90;;;10.15;;
14892;SDS011;7538;53.626;9.906;2023-11-19T08:52:21;69.40;;;12.18;;
14892;SDS011;7538;53.626;9.906;2023-11-19T08:54:47;41.42;;;9.88;;
14892;SDS011;7538;53.626;9.906;2023-11-19T08:57:14;51.03;;;9.63;;
14892;SDS011;7538;53.626;9.906;2023-11-19T08:59:41;51.47;;;10.43;;
14892;SDS011;7538;53.626;9.906;2023-11-19T09:02:10;51.70;;;9.05;;
14892;SDS011;7538;53.626;9.906;2023-11-19T09:04:39;59.53;;;9.25;;
14892;SDS011;7538;53.626;9.906;2023-11-19T09:07:06;46.25;;;8.68;;
14892;SDS011;7538;53.626;9.906;2023-11-19T09:09:34;39.90;;;8.13;;
14892;SDS011;7538;53.626;9.906;2023-11-19T09:12:01;38.60;;;9.63;;
14892;SDS011;7538;53.626;9.906;2023-11-19T09:14:29;43.60;;;8.20;;
14892;SDS011;7538;53.626;9.906;2023-11-19T09:16:56;51.15;;;10.00;;
14892;SDS011;7538;53.626;9.906;2023-11-19T09:19:23;51.97;;;10.00;;
14892;SDS011;7538;53.626;9.906;2023-11-19T09:21:52;72.93;;;13.02;;
14892;SDS011;7538;53.626;9.906;2023-11-19T09:24:19;57.65;;;10.35;;
14892;SDS011;7538;53.626;9.906;2023-11-19T09:26:46;62.35;;;11.60;;
14892;SDS011;7538;53.626;9.906;2023-11-19T09:29:13;58.63;;;10.48;;
14892;SDS011;7538;53.626;9.906;2023-11-19T09:31:40;60.75;;;10.27;;
14892;SDS011;7538;53.626;9.906;2023-11-19T09:34:07;67.72;;;11.68;;
14892;SDS011;7538;53.626;9.906;2023-11-19T09:36:34;47.72;;;9.90;;
14892;SDS011;7538;53.626;9.906;2023-11-19T09:39:02;49.47;;;10.10;;
14892;SDS011;7538;53.626;9.906;2023-11-19T09:41:30;41.63;;;9.68;;
14892;SDS011;7538;53.626;9.906;2023-11-19T09:44:04;81.78;;;12.82;;
14892;SDS011;7538;53.626;9.906;2023-11-19T09:46:31;50.35;;;9.73;;
14892;SDS011;7538;53.626;9.906;2023-11-19T09:48:58;66.28;;;9.85;;
14892;SDS011;7538;53.626;9.906;2023-11-19T09:51:26;65.30;;;11.23;;
14892;SDS011;7538;53.626;9.906;2023-11-19T09:53:53;57.35;;;10.65;;
14892;SDS011;7538;53.626;9.906;2023-11-19T09:56:22;43.25;;;10.25;;
14892;SDS011;7538;53.626;9.906;2023-11-19T09:58:49;63.75;;;10.55;;
14892;SDS011;7538;53.626;9.906;2023-11-19T10:01:16;60.33;;;9.73;;
14892;SDS011;7538;53.626;9.906;2023-11-19T10:03:42;54.78;;;9.82;;
14892;SDS011;7538;53.626;9.906;2023-11-19T10:06:12;43.78;;;8.38;;
14892;SDS011;7538;53.626;9.906;2023-11-19T10:08:41;42.33;;;8.00;;
14892;SDS011;7538;53.626;9.906;2023-11-19T10:11:09;40.60;;;7.47;;
14892;SDS011;7538;53.626;9.906;2023-11-19T10:13:39;53.92;;;9.25;;
14892;SDS011;7538;53.626;9.906;2023-11-19T10:16:07;42.90;;;7.43;;
14892;SDS011;7538;53.626;9.906;2023-11-19T10:18:36;48.08;;;7.95;;
14892;SDS011;7538;53.626;9.906;2023-11-19T10:21:04;37.88;;;8.40;;
14892;SDS011;7538;53.626;9.906;2023-11-19T10:23:45;46.63;;;8.45;;
14892;SDS011;7538;53.626;9.906;2023-11-19T10:26:14;45.20;;;9.15;;
14892;SDS011;7538;53.626;9.906;2023-11-19T10:28:43;54.85;;;9.43;;
14892;SDS011;7538;53.626;9.906;2023-11-19T10:31:11;45.67;;;8.25;;
14892;SDS011;7538;53.626;9.906;2023-11-19T10:33:38;32.10;;;7.47;;
14892;SDS011;7538;53.626;9.906;2023-11-19T10:36:05;41.30;;;7.88;;
14892;SDS011;7538;53.626;9.906;2023-11-19T10:38:33;50.97;;;8.05;;
14892;SDS011;7538;53.626;9.906;2023-11-19T10:41:00;45.90;;;8.18;;
14892;SDS011;7538;53.626;9.906;2023-11-19T10:43:26;47.38;;;8.52;;
14892;SDS011;7538;53.626;9.906;2023-11-19T10:45:55;49.47;;;8.52;;
14892;SDS011;7538;53.626;9.906;2023-11-19T10:48:36;50.45;;;9.18;;
14892;SDS011;7538;53.626;9.906;2023-11-19T10:51:03;49.55;;;8.80;;
14892;SDS011;7538;53.626;9.906;2023-11-19T10:53:33;54.67;;;9.32;;
14892;SDS011;7538;53.626;9.906;2023-11-19T10:56:04;46.15;;;10.50;;
14892;SDS011;7538;53.626;9.906;2023-11-19T10:58:35;49.28;;;10.00;;
14892;SDS011;7538;53.626;9.906;2023-11-19T11:01:07;46.58;;;9.05;;
14892;SDS011;7538;53.626;9.906;2023-11-19T11:03:39;48.47;;;9.25;;
14892;SDS011;7538;53.626;9.906;2023-11-19T11:06:06;45.85;;;9.40;;
14892;SDS011;7538;53.626;9.906;2023-11-19T11:08:34;38.35;;;8.65;;
14892;SDS011;7538;53.626;9.906;2023-11-19T11:11:04;37.03;;;8.68;;
14892;SDS011;7538;53.626;9.906;2023-11-19T11:13:33;50.35;;;9.80;;
14892;SDS011;7538;53.626;9.906;2023-11-19T11:16:00;55.30;;;9.57;;
14892;SDS011;7538;53.626;9.906;2023-11-19T11:18:30;54.85;;;9.48;;
14892;SDS011;7538;53.626;9.906;2023-11-19T11:21:00;50.30;;;9.15;;
14892;SDS011;7538;53.626;9.906;2023-11-19T11:26:32;56.78;;;9.07;;
14892;SDS011;7538;53.626;9.906;2023-11-19T11:29:14;45.80;;;7.70;;
14892;SDS011;7538;53.626;9.906;2023-11-19T11:31:52;38.00;;;7.47;;
14892;SDS011;7538;53.626;9.906;2023-11-19T11:34:32;37.47;;;8.05;;
14892;SDS011;7538;53.626;9.906;2023-11-19T11:37:17;45.78;;;8.10;;
14892;SDS011;7538;53.626;9.906;2023-11-19T11:39:45;44.33;;;7.47;;
14892;SDS011;7538;53.626;9.906;2023-11-19T11:45:02;45.40;;;8.63;;
14892;SDS011;7538;53.626;9.906;2023-11-19T11:50:56;34.72;;;7.03;;
14892;SDS011;7538;53.626;9.906;2023-11-19T11:53:27;56.67;;;9.88;;
14892;SDS011;7538;53.626;9.906;2023-11-19T11:55:57;45.30;;;9.38;;
14892;SDS011;7538;53.626;9.906;2023-11-19T11:58:26;40.15;;;7.50;;
14892;SDS011;7538;53.626;9.906;2023-11-19T12:01:03;54.92;;;8.50;;
14892;SDS011;7538;53.626;9.906;2023-11-19T12:03:32;50.65;;;8.55;;
14892;SDS011;7538;53.626;9.906;2023-11-19T12:06:00;27.92;;;6.88;;
14892;SDS011;7538;53.626;9.906;2023-11-19T12:08:28;44.67;;;8.45;;
14892;SDS011;7538;53.626;9.906;2023-11-19T12:10:58;50.63;;;8.63;;
14892;SDS011;7538;53.626;9.906;2023-11-19T12:13:47;51.92;;;10.07;;
14892;SDS011;7538;53.626;9.906;2023-11-19T12:16:20;46.33;;;8.02;;
14892;SDS011;7538;53.626;9.906;2023-11-19T12:18:48;40.33;;;7.90;;
14892;SDS011;7538;53.626;9.906;2023-11-19T12:21:29;51.08;;;8.57;;
14892;SDS011;7538;53.626;9.906;2023-11-19T12:23:58;37.45;;;7.05;;
14892;SDS011;7538;53.626;9.906;2023-11-19T12:26:31;50.35;;;7.75;;
14892;SDS011;7538;53.626;9.906;2023-11-19T12:29:01;30.95;;;6.13;;
14892;SDS011;7538;53.626;9.906;2023-11-19T12:31:32;45.60;;;8.05;;
14892;SDS011;7538;53.626;9.906;2023-11-19T12:34:04;53.45;;;7.47;;
14892;SDS011;7538;53.626;9.906;2023-11-19T12:36:38;37.47;;;7.10;;
14892;SDS011;7538;53.626;9.906;2023-11-19T12:39:06;40.70;;;7.38;;
14892;SDS011;7538;53.626;9.906;2023-11-19T12:41:48;47.10;;;8.40;;
14892;SDS011;7538;53.626;9.906;2023-11-19T12:44:16;37.47;;;7.43;;
14892;SDS011;7538;53.626;9.906;2023-11-19T12:46:43;33.47;;;6.32;;
14892;SDS011;7538;53.626;9.906;2023-11-19T12:49:12;44.00;;;7.70;;
14892;SDS011;7538;53.626;9.906;2023-11-19T12:51:41;26.73;;;6.05;;
14892;SDS011;7538;53.626;9.906;2023-11-19T12:54:08;47.25;;;7.57;;
14892;SDS011;7538;53.626;9.906;2023-11-19T12:56:39;29.67;;;6.38;;
14892;SDS011;7538;53.626;9.906;2023-11-19T12:59:10;35.58;;;7.47;;
14892;SDS011;7538;53.626;9.906;2023-11-19T13:01:38;32.05;;;6.18;;
14892;SDS011;7538;53.626;9.906;2023-11-19T13:04:15;31.45;;;6.50;;
14892;SDS011;7538;53.626;9.906;2023-11-19T13:06:45;36.65;;;6.65;;
14892;SDS011;7538;53.626;9.906;2023-11-19T13:09:21;41.22;;;8.00;;
14892;SDS011;7538;53.626;9.906;2023-11-19T13:11:48;36.88;;;7.13;;
14892;SDS011;7538;53.626;9.906;2023-11-19T13:14:15;38.33;;;7.53;;
14892;SDS011;7538;53.626;9.906;2023-11-19T13:16:42;36.47;;;7.10;;
14892;SDS011;7538;53.626;9.906;2023-11-19T13:19:10;38.72;;;7.82;;
14892;SDS011;7538;53.626;9.906;2023-11-19T13:21:37;44.38;;;7.80;;
14892;SDS011;7538;53.626;9.906;2023-11-19T13:24:06;34.80;;;6.65;;
14892;SDS011;7538;53.626;9.906;2023-11-19T13:26:33;47.67;;;7.00;;
14892;SDS011;7538;53.626;9.906;2023-11-19T13:28:59;26.13;;;6.88;;
14892;SDS011;7538;53.626;9.906;2023-11-19T13:31:26;38.22;;;6.93;;
14892;SDS011;7538;53.626;9.906;2023-11-19T13:33:53;37.88;;;8.27;;
14892;SDS011;7538;53.626;9.906;2023-11-19T13:36:20;39.58;;;7.10;;
14892;SDS011;7538;53.626;9.906;2023-11-19T13:38:47;30.60;;;6.28;;
14892;SDS011;7538;53.626;9.906;2023-11-19T13:41:15;38.58;;;7.30;;
14892;SDS011;7538;53.626;9.906;2023-11-19T13:43:42;39.40;;;6.75;;
14892;SDS011;7538;53.626;9.906;2023-11-19T13:46:09;37.20;;;7.05;;
14892;SDS011;7538;53.626;9.906;2023-11-19T13:48:36;36.45;;;6.72;;
14892;SDS011;7538;53.626;9.906;2023-11-19T13:51:03;30.95;;;7.97;;
14892;SDS011;7538;53.626;9.906;2023-11-19T13:53:31;32.05;;;6.65;;
14892;SDS011;7538;53.626;9.906;2023-11-19T13:55:58;36.15;;;6.57;;
14892;SDS011;7538;53.626;9.906;2023-11-19T13:58:26;41.53;;;7.82;;
14892;SDS011;7538;53.626;9.906;2023-11-19T14:00:53;27.88;;;6.15;;
14892;SDS011;7538;53.626;9.906;2023-11-19T14:03:19;36.53;;;7.35;;
14892;SDS011;7538;53.626;9.906;2023-11-19T14:05:46;32.95;;;7.32;;
14892;SDS011;7538;53.626;9.906;2023-11-19T14:08:17;32.00;;;6.93;;
14892;SDS011;7538;53.626;9.906;2023-11-19T14:10:44;33.15;;;7.03;;
14892;SDS011;7538;53.626;9.906;2023-11-19T14:13:11;26.88;;;5.47;;
14892;SDS011;7538;53.626;9.906;2023-11-19T14:15:41;34.30;;;6.15;;
14892;SDS011;7538;53.626;9.906;2023-11-19T14:18:08;35.00;;;6.60;;
14892;SDS011;7538;53.626;9.906;2023-11-19T14:20:35;26.08;;;6.70;;
14892;SDS011;7538;53.626;9.906;2023-11-19T14:23:03;34.80;;;7.68;;
14892;SDS011;7538;53.626;9.906;2023-11-19T14:25:29;22.45;;;5.80;;
14892;SDS011;7538;53.626;9.906;2023-11-19T14:27:56;28.67;;;6.57;;
14892;SDS011;7538;53.626;9.906;2023-11-19T14:30:23;29.05;;;6.57;;
14892;SDS011;7538;53.626;9.906;2023-11-19T14:32:51;25.33;;;6.32;;
14892;SDS011;7538;53.626;9.906;2023-11-19T14:35:19;16.35;;;4.95;;
14892;SDS011;7538;53.626;9.906;2023-11-19T14:37:46;23.38;;;4.75;;
14892;SDS011;7538;53.626;9.906;2023-11-19T14:40:12;10.20;;;2.70;;
14892;SDS011;7538;53.626;9.906;2023-11-19T14:42:39;9.80;;;2.40;;
14892;SDS011;7538;53.626;9.906;2023-11-19T14:45:07;12.88;;;2.85;;
14892;SDS011;7538;53.626;9.906;2023-11-19T14:47:37;14.38;;;3.10;;
14892;SDS011;7538;53.626;9.906;2023-11-19T14:50:05;10.88;;;2.55;;
14892;SDS011;7538;53.626;9.906;2023-11-19T14:52:34;8.85;;;2.00;;
14892;SDS011;7538;53.626;9.906;2023-11-19T14:55:02;7.47;;;2.40;;
14892;SDS011;7538;53.626;9.906;2023-11-19T14:57:30;5.82;;;1.95;;